Time;durP1;ratioP1;P1;durP2;ratioP2;P2;SDS_P1;SDS_P2;PMS_P1;PMS_P2;Temp;Humidity;BMP_temperature;BMP_pressure;BME280_temperature;BME280_humidity;BME280_pressure;Samples;Min_cycle;Max_cycle;Signal;HPM_P1;HPM_P2
2021/07/24 00:00:43;;;;;;;9.60;7.93;;;16.90;99.90;;;;;;471575;252;30072;-69
2021/07/24 00:02:45;;;;;;;8.43;7.27;;;;;;;;;;471570;252;29292;-69
2021/07/24 00:04:46;;;;;;;8.07;6.67;;;16.50;99.90;;;;;;471561;252;27915;-69
2021/07/24 00:06:49;;;;;;;8.33;7.17;;;;;;;;;;471562;252;28866;-70
2021/07/24 00:08:52;;;;;;;8.10;7.30;;;;;;;;;;471555;252;26860;-70
2021/07/24 00:10:54;;;;;;;7.67;6.87;;;;;;;;;;471581;252;28077;-69
2021/07/24 00:12:57;;;;;;;8.57;6.93;;;;;;;;;;471522;252;27448;-71
2021/07/24 00:14:59;;;;;;;8.30;6.57;;;;;;;;;;471563;252;26427;-71
2021/07/24 00:17:02;;;;;;;8.60;7.10;;;;;;;;;;471557;252;27550;-71
2021/07/24 00:19:04;;;;;;;8.83;6.97;;;16.60;99.90;;;;;;471577;251;26777;-71
2021/07/24 00:21:07;;;;;;;8.00;7.03;;;;;;;;;;471533;252;27479;-71
2021/07/24 00:23:11;;;;;;;8.73;7.30;;;;;;;;;;471554;252;26873;-71
2021/07/24 00:25:12;;;;;;;9.93;7.70;;;;;;;;;;471560;252;26659;-71
2021/07/24 00:27:14;;;;;;;7.83;7.03;;;16.70;99.90;;;;;;471592;252;27817;-71
2021/07/24 00:29:16;;;;;;;11.30;7.10;;;;;;;;;;471581;252;28832;-71
2021/07/24 00:31:17;;;;;;;8.33;7.30;;;16.80;99.90;;;;;;471571;252;27999;-71
2021/07/24 00:33:18;;;;;;;8.97;7.30;;;16.70;99.90;;;;;;471559;252;29353;-68
2021/07/24 00:35:21;;;;;;;9.00;7.50;;;;;;;;;;471562;251;29297;-69
2021/07/24 00:37:22;;;;;;;8.83;7.70;;;16.60;99.90;;;;;;471554;252;26322;-71
2021/07/24 00:39:26;;;;;;;9.93;7.93;;;;;;;;;;471576;252;29667;-70
2021/07/24 00:41:28;;;;;;;8.23;7.13;;;;;;;;;;471562;252;26335;-70
2021/07/24 00:43:31;;;;;;;7.77;6.97;;;;;;;;;;471572;252;27464;-71
2021/07/24 00:45:33;;;;;;;9.87;8.13;;;;;;;;;;471610;252;26335;-69
2021/07/24 00:47:35;;;;;;;7.50;6.73;;;;;;;;;;471609;252;27577;-69
2021/07/24 00:49:41;;;;;;;9.03;8.00;;;;;;;;;;471606;252;27495;-71
2021/07/24 00:51:44;;;;;;;7.87;6.93;;;;;;;;;;471316;252;26895;-69
2021/07/24 00:53:42;;;;;;;8.70;7.57;;;16.50;99.90;;;;;;471331;252;27891;-71
2021/07/24 00:55:43;;;;;;;7.20;6.50;;;16.80;99.90;;;;;;478964;234;28848;-71
2021/07/24 00:57:48;;;;;;;8.53;7.10;;;16.70;99.90;;;;;;486369;244;28832;-70
2021/07/24 00:59:49;;;;;;;8.60;7.37;;;16.60;99.90;;;;;;500679;237;28781;-70
2021/07/24 01:01:51;;;;;;;11.13;6.97;;;16.60;99.90;;;;;;500679;237;28637;-69
2021/07/24 01:03:51;;;;;;;7.50;6.70;;;16.60;99.90;;;;;;500593;237;28775;-71
2021/07/24 01:05:52;;;;;;;7.43;6.63;;;16.60;99.90;;;;;;490859;236;28841;-71
2021/07/24 01:07:54;;;;;;;9.13;6.80;;;16.50;99.90;;;;;;481568;246;29315;-69
2021/07/24 01:09:55;;;;;;;7.57;6.77;;;16.50;99.90;;;;;;485539;245;29348;-71
2021/07/24 01:11:57;;;;;;;7.97;7.07;;;;;;;;;;480630;247;29234;-72
2021/07/24 01:13:58;;;;;;;8.33;7.10;;;16.30;99.90;;;;;;489523;243;27500;-72
2021/07/24 01:16:00;;;;;;;11.10;7.60;;;;;;;;;;485573;245;28858;-71
2021/07/24 01:18:02;;;;;;;7.80;7.00;;;16.20;99.90;;;;;;485571;245;27520;-72
2021/07/24 01:20:04;;;;;;;8.83;6.70;;;;;;;;;;480538;247;28797;-70
2021/07/24 01:22:06;;;;;;;8.73;7.30;;;;;;;;;;489503;243;27422;-69
2021/07/24 01:24:07;;;;;;;9.50;7.10;;;15.80;99.90;;;;;;489529;243;27942;-69
2021/07/24 01:26:08;;;;;;;9.70;7.50;;;16.30;99.90;;;;;;485542;245;29400;-69
2021/07/24 01:28:09;;;;;;;10.20;8.10;;;16.90;99.90;;;;;;480604;247;29338;-71
2021/07/24 01:30:11;;;;;;;12.77;8.70;;;17.30;99.90;;;;;;485576;245;28895;-71
2021/07/24 01:32:12;;;;;;;11.63;8.63;;;17.60;99.90;;;;;;480640;247;28839;-71
2021/07/24 01:34:13;;;;;;;9.70;8.33;;;18.10;99.90;;;;;;485573;245;28886;-71
2021/07/24 01:36:14;;;;;;;12.30;8.57;;;18.20;99.90;;;;;;480627;247;28840;-71
2021/07/24 01:38:16;;;;;;;11.67;9.90;;;18.20;99.90;;;;;;485578;245;28958;-71
2021/07/24 01:40:17;;;;;;;10.57;8.30;;;18.10;99.90;;;;;;480594;247;28844;-69
2021/07/24 01:42:18;;;;;;;11.30;8.27;;;18.10;99.90;;;;;;485578;245;28845;-71
2021/07/24 01:44:20;;;;;;;12.13;9.77;;;17.50;99.90;;;;;;480614;247;29341;-71
2021/07/24 01:46:21;;;;;;;9.80;8.30;;;16.90;99.90;;;;;;485531;245;29297;-69
2021/07/24 01:48:41;;;;;;;10.13;7.73;;;16.20;99.90;;;;;;480573;247;29261;-71
2021/07/24 01:53:00;;;;;;;9.00;8.00;;;15.70;99.90;;;;;;485533;245;27600;-71
2021/07/24 01:55:02;;;;;;;10.13;8.17;;;;;;;;;;480607;247;27931;-70
2021/07/24 01:57:03;;;;;;;11.17;8.20;;;15.90;99.90;;;;;;489540;243;27408;-69
2021/07/24 01:59:05;;;;;;;11.30;9.07;;;;;;;;;;485569;245;28977;-69
2021/07/24 02:01:06;;;;;;;12.27;8.90;;;16.20;99.90;;;;;;485562;245;27604;-69
2021/07/24 02:03:08;;;;;;;10.80;8.70;;;16.30;99.90;;;;;;480653;247;28750;-69
2021/07/24 02:05:09;;;;;;;13.57;8.40;;;16.40;99.90;;;;;;485556;245;28827;-69
2021/07/24 02:07:10;;;;;;;10.87;8.77;;;16.60;99.90;;;;;;480569;247;28802;-71
2021/07/24 02:09:11;;;;;;;9.03;8.10;;;16.90;99.90;;;;;;485547;245;29018;-70
2021/07/24 02:11:12;;;;;;;9.60;7.70;;;17.10;99.90;;;;;;480537;247;28804;-71
2021/07/24 02:13:14;;;;;;;9.37;7.37;;;17.20;99.90;;;;;;485480;245;30190;-69
2021/07/24 02:15:15;;;;;;;10.20;7.97;;;16.90;99.90;;;;;;480552;247;29304;-69
2021/07/24 02:17:16;;;;;;;11.53;8.80;;;16.70;99.90;;;;;;485543;245;29424;-69
2021/07/24 02:19:17;;;;;;;11.23;8.57;;;17.00;99.90;;;;;;480547;247;28858;-71
2021/07/24 02:21:19;;;;;;;10.93;8.63;;;17.40;99.90;;;;;;485537;245;28969;-69
2021/07/24 02:23:20;;;;;;;13.10;9.30;;;17.80;99.90;;;;;;480559;247;28833;-69
2021/07/24 02:25:21;;;;;;;10.90;8.97;;;18.10;99.90;;;;;;485538;245;28887;-69
2021/07/24 02:27:22;;;;;;;13.70;8.57;;;18.10;99.90;;;;;;480558;247;28887;-69
2021/07/24 02:29:24;;;;;;;11.90;9.10;;;18.10;99.90;;;;;;485536;245;28846;-69
2021/07/24 02:31:25;;;;;;;10.90;8.47;;;18.20;99.90;;;;;;480604;247;29264;-69
2021/07/24 02:33:26;;;;;;;11.83;8.90;;;18.20;99.90;;;;;;485539;245;29364;-70
2021/07/24 02:35:27;;;;;;;12.13;8.90;;;18.30;99.90;;;;;;480604;247;29287;-69
2021/07/24 02:37:29;;;;;;;9.87;8.50;;;18.50;99.90;;;;;;485531;245;28884;-69
2021/07/24 02:39:30;;;;;;;11.67;9.00;;;18.50;99.90;;;;;;480560;247;28850;-69
2021/07/24 02:41:31;;;;;;;9.70;8.33;;;18.50;99.90;;;;;;485539;245;28890;-69
2021/07/24 02:43:32;;;;;;;9.30;8.23;;;18.50;99.90;;;;;;480572;247;28810;-69
2021/07/24 02:45:34;;;;;;;9.40;7.80;;;18.40;99.90;;;;;;485543;245;28902;-69
2021/07/24 02:47:35;;;;;;;8.73;7.60;;;18.30;99.90;;;;;;480566;247;28783;-69
2021/07/24 02:49:37;;;;;;;9.10;7.50;;;18.30;99.90;;;;;;485545;245;28850;-69
2021/07/24 02:51:38;;;;;;;9.90;6.80;;;18.20;99.90;;;;;;480586;247;28852;-69
2021/07/24 02:53:39;;;;;;;8.60;7.43;;;17.70;99.90;;;;;;485543;245;29345;-70
2021/07/24 02:55:40;;;;;;;8.93;6.80;;;17.20;99.90;;;;;;480562;247;29255;-71
2021/07/24 02:57:41;;;;;;;8.93;7.27;;;16.90;99.90;;;;;;485488;245;29370;-71
2021/07/24 02:59:43;;;;;;;8.63;7.20;;;;;;;;;;480580;247;28828;-71
2021/07/24 03:01:45;;;;;;;9.30;7.57;;;;;;;;;;489508;243;27371;-71
2021/07/24 03:03:48;;;;;;;11.60;7.93;;;;;;;;;;489509;243;27492;-71
2021/07/24 03:05:49;;;;;;;8.13;7.03;;;17.00;99.90;;;;;;489520;243;27356;-71
2021/07/24 03:07:50;;;;;;;9.00;7.80;;;17.10;99.90;;;;;;485521;245;28907;-71
2021/07/24 03:09:51;;;;;;;8.10;6.97;;;17.20;99.90;;;;;;480602;247;28908;-69
2021/07/24 03:11:52;;;;;;;8.13;7.30;;;17.20;99.90;;;;;;485557;245;28872;-71
2021/07/24 03:13:54;;;;;;;9.43;7.00;;;17.30;99.90;;;;;;480618;247;28824;-71
2021/07/24 03:15:55;;;;;;;8.07;6.80;;;17.40;99.90;;;;;;485460;245;28854;-71
2021/07/24 03:17:56;;;;;;;8.40;7.30;;;17.40;99.90;;;;;;480560;247;28828;-70
2021/07/24 03:19:58;;;;;;;8.53;7.30;;;17.50;99.90;;;;;;485539;245;29390;-71
2021/07/24 03:21:59;;;;;;;9.00;7.30;;;17.50;99.90;;;;;;480600;247;29223;-71
2021/07/24 03:24:01;;;;;;;8.40;7.47;;;;;;;;;;485516;245;29431;-71
2021/07/24 03:26:03;;;;;;;11.83;8.40;;;;;;;;;;485567;242;28031;-71
2021/07/24 03:28:04;;;;;;;10.90;8.13;;;17.00;99.90;;;;;;485557;245;27543;-71
2021/07/24 03:30:07;;;;;;;8.80;7.70;;;;;;;;;;480609;247;28804;-69
2021/07/24 03:32:07;;;;;;;11.40;8.50;;;17.10;99.90;;;;;;485488;245;27525;-71
2021/07/24 03:34:09;;;;;;;11.40;9.13;;;17.10;99.90;;;;;;480551;247;28777;-72
2021/07/24 03:36:10;;;;;;;9.80;7.23;;;17.30;99.90;;;;;;485541;245;28882;-71
2021/07/24 03:38:11;;;;;;;9.30;8.00;;;17.30;99.90;;;;;;480608;247;28768;-71
2021/07/24 03:40:12;;;;;;;9.33;7.93;;;17.40;99.90;;;;;;485491;245;28974;-71
2021/07/24 03:42:14;;;;;;;9.30;7.43;;;17.40;99.90;;;;;;480543;247;29206;-71
2021/07/24 03:44:15;;;;;;;8.57;7.30;;;17.50;99.90;;;;;;485445;245;29443;-72
2021/07/24 03:46:16;;;;;;;8.70;7.70;;;17.50;99.90;;;;;;480528;247;29311;-71
2021/07/24 03:48:17;;;;;;;9.63;8.20;;;17.60;99.90;;;;;;484868;245;29778;-68
2021/07/24 03:50:19;;;;;;;9.43;7.73;;;17.60;99.90;;;;;;480196;247;29263;-68
2021/07/24 03:52:20;;;;;;;9.97;7.80;;;17.60;99.90;;;;;;485494;245;28993;-72
2021/07/24 03:54:21;;;;;;;13.30;8.27;;;17.60;99.90;;;;;;480565;247;28840;-71
2021/07/24 03:56:22;;;;;;;8.77;7.60;;;17.30;99.90;;;;;;485535;245;28892;-69
2021/07/24 03:58:24;;;;;;;8.43;7.40;;;17.20;99.90;;;;;;480626;247;28763;-69
2021/07/24 04:00:25;;;;;;;9.50;7.60;;;17.20;99.90;;;;;;485567;245;28830;-71
2021/07/24 04:02:27;;;;;;;7.83;6.87;;;17.30;99.90;;;;;;480590;247;28795;-71
2021/07/24 04:04:30;;;;;;;8.60;7.30;;;;;;;;;;485526;245;28929;-70
2021/07/24 04:06:31;;;;;;;8.80;7.40;;;17.30;99.90;;;;;;485547;245;26384;-69
2021/07/24 04:08:32;;;;;;;8.90;7.50;;;17.30;99.90;;;;;;480568;247;28875;-70
2021/07/24 04:10:33;;;;;;;8.40;7.33;;;17.30;99.90;;;;;;485524;245;28964;-69
2021/07/24 04:12:34;;;;;;;8.73;6.97;;;17.10;99.90;;;;;;480549;247;28862;-69
2021/07/24 04:14:36;;;;;;;9.27;7.20;;;16.90;99.90;;;;;;485527;245;28866;-69
2021/07/24 04:16:37;;;;;;;12.73;8.03;;;16.80;99.90;;;;;;480584;247;28800;-69
2021/07/24 04:18:38;;;;;;;9.10;7.63;;;16.70;99.90;;;;;;485485;245;28747;-69
2021/07/24 04:20:40;;;;;;;12.93;7.40;;;;;;;;;;480615;247;29333;-69
2021/07/24 04:22:44;;;;;;;10.77;8.07;;;;;;;;;;489537;243;27909;-69
2021/07/24 04:24:45;;;;;;;9.90;7.70;;;16.90;99.90;;;;;;489532;243;27498;-70
2021/07/24 04:26:46;;;;;;;9.70;8.23;;;17.00;99.90;;;;;;485418;245;29297;-70
2021/07/24 04:28:47;;;;;;;9.93;8.57;;;17.00;99.90;;;;;;480090;247;29271;-71
2021/07/24 04:30:49;;;;;;;9.73;7.83;;;17.10;99.90;;;;;;485174;245;28922;-71
2021/07/24 04:32:50;;;;;;;9.20;7.80;;;17.20;99.90;;;;;;480435;247;28798;-71
2021/07/24 04:34:51;;;;;;;9.97;7.97;;;17.20;99.90;;;;;;485107;245;28998;-71
2021/07/24 04:36:52;;;;;;;10.03;7.70;;;17.30;99.90;;;;;;480379;247;28767;-71
2021/07/24 04:38:54;;;;;;;8.50;7.30;;;17.30;99.90;;;;;;485561;245;29023;-69
2021/07/24 04:40:55;;;;;;;8.37;7.00;;;17.40;99.90;;;;;;480625;247;28749;-70
2021/07/24 04:42:56;;;;;;;7.80;7.00;;;17.30;99.90;;;;;;485550;245;28890;-71
2021/07/24 04:44:57;;;;;;;9.63;8.00;;;17.30;99.90;;;;;;480529;247;28875;-71
2021/07/24 04:46:59;;;;;;;10.27;7.63;;;17.30;99.90;;;;;;485553;245;29295;-70
2021/07/24 04:49:00;;;;;;;9.87;7.87;;;17.30;99.90;;;;;;480590;247;29292;-69
2021/07/24 04:51:01;;;;;;;9.70;7.17;;;17.40;99.90;;;;;;485558;245;29313;-69
2021/07/24 04:53:03;;;;;;;10.87;8.50;;;17.40;99.90;;;;;;480561;247;28839;-69
2021/07/24 04:55:04;;;;;;;9.70;7.67;;;17.40;99.90;;;;;;485569;245;28919;-71
2021/07/24 04:57:05;;;;;;;8.93;7.70;;;17.50;99.90;;;;;;480621;247;28862;-71
2021/07/24 04:59:06;;;;;;;9.20;8.07;;;17.60;99.90;;;;;;485547;245;28957;-71
2021/07/24 05:01:07;;;;;;;11.47;8.00;;;17.90;99.90;;;;;;480572;247;28752;-71
2021/07/24 05:03:09;;;;;;;10.93;8.83;;;18.20;99.90;;;;;;485594;245;28870;-71
2021/07/24 05:05:10;;;;;;;11.17;8.07;;;18.70;99.90;;;;;;480641;247;28798;-71
2021/07/24 05:07:11;;;;;;;11.90;8.50;;;19.00;99.90;;;;;;485573;245;29277;-71
2021/07/24 05:09:12;;;;;;;8.60;7.00;;;19.20;99.90;;;;;;480575;247;29261;-71
2021/07/24 05:11:14;;;;;;;8.33;7.20;;;19.30;99.90;;;;;;485554;245;29510;-71
2021/07/24 05:13:15;;;;;;;10.23;7.57;;;19.40;99.90;;;;;;480603;247;28816;-71
2021/07/24 05:15:16;;;;;;;8.80;7.43;;;19.50;99.90;;;;;;485455;245;28870;-71
2021/07/24 05:17:17;;;;;;;10.07;7.90;;;19.60;99.90;;;;;;480464;247;28765;-71
2021/07/24 05:19:19;;;;;;;9.40;7.43;;;19.60;99.90;;;;;;484995;245;28972;-71
2021/07/24 05:21:20;;;;;;;8.00;7.17;;;19.70;99.90;;;;;;479372;247;28895;-71
2021/07/24 05:23:21;;;;;;;9.00;7.20;;;19.80;99.90;;;;;;485028;245;28984;-71
2021/07/24 05:25:22;;;;;;;8.53;7.40;;;19.90;99.90;;;;;;480586;247;28797;-71
2021/07/24 05:27:24;;;;;;;8.40;6.27;;;19.90;99.90;;;;;;485537;245;29440;-71
2021/07/24 05:29:25;;;;;;;8.60;6.90;;;20.00;99.90;;;;;;480567;247;29263;-71
2021/07/24 05:31:29;;;;;;;7.53;6.13;;;20.10;99.90;;;;;;485533;245;29441;-71
2021/07/24 05:33:27;;;;;;;8.17;7.07;;;20.10;99.90;;;;;;480408;247;29230;-71
2021/07/24 05:35:29;;;;;;;7.73;6.50;;;20.10;99.90;;;;;;485549;245;29451;-72
2021/07/24 05:37:30;;;;;;;9.90;7.20;;;20.20;99.90;;;;;;480560;247;28739;-71
2021/07/24 05:39:31;;;;;;;8.97;6.13;;;20.20;99.90;;;;;;485556;245;28869;-71
2021/07/24 05:41:32;;;;;;;6.70;6.00;;;20.20;99.90;;;;;;480603;247;28898;-70
2021/07/24 05:43:34;;;;;;;7.10;6.40;;;20.20;99.90;;;;;;485548;245;28975;-71
2021/07/24 05:45:35;;;;;;;9.83;6.33;;;20.20;99.90;;;;;;480588;247;28806;-71
2021/07/24 05:47:36;;;;;;;9.60;6.87;;;20.20;99.90;;;;;;485549;245;28967;-71
2021/07/24 05:49:37;;;;;;;10.73;6.27;;;20.20;99.90;;;;;;480604;247;29284;-71
2021/07/24 05:51:39;;;;;;;7.47;6.53;;;20.10;99.90;;;;;;485550;245;29373;-69
2021/07/24 05:53:40;;;;;;;8.37;7.30;;;20.10;99.90;;;;;;480457;247;28778;-70
2021/07/24 05:55:41;;;;;;;12.03;6.83;;;20.10;99.90;;;;;;484118;235;28992;-69
2021/07/24 05:57:42;;;;;;;7.10;5.83;;;20.10;99.90;;;;;;482471;245;29229;-70
2021/07/24 05:59:44;;;;;;;10.10;7.40;;;20.00;99.90;;;;;;482422;246;28830;-70
2021/07/24 06:01:45;;;;;;;7.87;6.60;;;20.00;99.90;;;;;;482469;246;28869;-70
2021/07/24 06:03:46;;;;;;;8.53;6.60;;;20.00;99.90;;;;;;482448;245;28836;-69
2021/07/24 06:05:48;;;;;;;10.10;7.10;;;20.00;99.90;;;;;;482463;246;28829;-69
2021/07/24 06:07:49;;;;;;;11.20;7.03;;;20.00;99.90;;;;;;482441;245;28791;-70
2021/07/24 06:09:50;;;;;;;14.57;7.53;;;20.00;99.90;;;;;;482465;245;29234;-69
2021/07/24 06:11:51;;;;;;;10.17;7.43;;;20.00;99.90;;;;;;482465;246;29266;-70
2021/07/24 06:13:53;;;;;;;9.73;7.17;;;20.00;99.90;;;;;;482448;246;29298;-70
2021/07/24 06:15:54;;;;;;;8.60;7.33;;;20.00;99.90;;;;;;482445;245;28798;-71
2021/07/24 06:17:55;;;;;;;9.20;7.50;;;19.90;99.90;;;;;;482195;245;28888;-71
2021/07/24 06:19:56;;;;;;;8.20;6.77;;;19.90;99.90;;;;;;482452;245;28757;-71
2021/07/24 06:21:59;;;;;;;9.30;6.80;;;19.90;99.90;;;;;;482462;245;28802;-71
2021/07/24 06:23:59;;;;;;;10.30;7.43;;;19.90;99.90;;;;;;482410;246;28769;-72
2021/07/24 06:26:00;;;;;;;10.17;8.10;;;19.90;99.90;;;;;;482461;246;28801;-71
2021/07/24 06:28:01;;;;;;;8.37;7.17;;;19.90;99.90;;;;;;482438;245;28895;-70
2021/07/24 06:30:03;;;;;;;8.33;7.13;;;19.90;99.90;;;;;;482449;245;28779;-69
2021/07/24 06:32:04;;;;;;;10.57;7.40;;;19.90;99.90;;;;;;482386;245;29358;-71
2021/07/24 06:34:05;;;;;;;9.90;6.83;;;19.90;99.90;;;;;;482448;245;29233;-72
2021/07/24 06:36:06;;;;;;;9.60;8.30;;;19.90;99.90;;;;;;482447;245;29356;-69
2021/07/24 06:38:09;;;;;;;10.30;6.70;;;19.90;99.90;;;;;;482459;245;28785;-72
2021/07/24 06:40:09;;;;;;;10.23;7.90;;;20.00;99.90;;;;;;482426;245;28846;-69
2021/07/24 06:42:10;;;;;;;8.93;7.03;;;20.00;99.90;;;;;;482446;245;28868;-70
2021/07/24 06:44:11;;;;;;;8.90;7.33;;;20.00;99.90;;;;;;482438;246;28824;-71
2021/07/24 06:46:13;;;;;;;11.17;7.60;;;19.90;99.90;;;;;;482458;245;28816;-70
2021/07/24 06:48:14;;;;;;;8.37;6.90;;;19.90;99.90;;;;;;482450;245;28902;-69
2021/07/24 06:50:15;;;;;;;9.00;6.33;;;19.90;99.90;;;;;;482449;245;28844;-72
2021/07/24 06:52:16;;;;;;;7.87;6.07;;;19.90;99.90;;;;;;482445;246;29236;-72
2021/07/24 06:54:18;;;;;;;7.03;6.30;;;19.90;99.90;;;;;;482434;245;29292;-71
2021/07/24 06:56:19;;;;;;;7.80;6.90;;;19.90;99.90;;;;;;472579;236;29423;-71
2021/07/24 06:58:20;;;;;;;8.50;6.43;;;19.90;99.90;;;;;;468722;254;29414;-71
2021/07/24 07:00:21;;;;;;;6.27;5.50;;;19.90;99.90;;;;;;468744;254;29475;-71
2021/07/24 07:02:23;;;;;;;7.83;6.40;;;19.90;99.90;;;;;;468731;254;28872;-70
2021/07/24 07:04:25;;;;;;;16.40;7.10;;;19.90;99.90;;;;;;468743;254;28841;-71
2021/07/24 07:06:25;;;;;;;7.30;6.07;;;19.80;99.90;;;;;;468640;254;28873;-70
2021/07/24 07:08:26;;;;;;;8.60;6.77;;;19.80;99.90;;;;;;468730;254;28860;-71
2021/07/24 07:10:28;;;;;;;8.27;5.47;;;19.70;99.90;;;;;;468739;254;28858;-71
2021/07/24 07:12:29;;;;;;;6.40;5.70;;;19.70;99.90;;;;;;468742;254;28877;-71
2021/07/24 07:14:30;;;;;;;6.73;5.63;;;19.60;99.90;;;;;;468739;254;28835;-71
2021/07/24 07:16:31;;;;;;;5.70;5.10;;;19.60;99.90;;;;;;468741;250;29419;-71
2021/07/24 07:18:33;;;;;;;7.80;5.77;;;19.50;99.90;;;;;;468736;254;29496;-71
2021/07/24 07:20:34;;;;;;;6.03;5.43;;;19.50;99.90;;;;;;468754;254;29266;-71
2021/07/24 07:22:35;;;;;;;8.53;5.10;;;19.50;99.90;;;;;;468755;254;28954;-70
2021/07/24 07:24:36;;;;;;;5.90;5.30;;;19.40;99.90;;;;;;468749;254;28811;-71
2021/07/24 07:26:38;;;;;;;5.43;4.93;;;19.40;99.90;;;;;;468750;254;28850;-71
2021/07/24 07:28:39;;;;;;;5.87;4.90;;;19.30;99.90;;;;;;468738;254;28882;-70
2021/07/24 07:30:40;;;;;;;7.90;5.43;;;19.30;99.90;;;;;;468729;254;28898;-72
2021/07/24 07:32:41;;;;;;;6.60;5.50;;;19.30;99.90;;;;;;468743;254;28959;-70
2021/07/24 07:34:43;;;;;;;5.37;4.50;;;19.30;99.90;;;;;;468775;254;28855;-70
2021/07/24 07:36:44;;;;;;;5.13;4.63;;;19.30;99.90;;;;;;468729;251;28939;-71
2021/07/24 07:38:45;;;;;;;6.20;5.13;;;19.20;99.90;;;;;;468747;254;28986;-70
2021/07/24 07:40:46;;;;;;;6.20;5.00;;;19.30;99.90;;;;;;468740;254;29285;-70
2021/07/24 07:42:48;;;;;;;5.53;4.77;;;19.30;99.90;;;;;;468737;254;29333;-69
2021/07/24 07:44:49;;;;;;;5.30;4.80;;;19.30;99.90;;;;;;468727;254;29376;-70
2021/07/24 07:46:50;;;;;;;6.40;5.17;;;19.30;99.90;;;;;;468729;254;29328;-70
2021/07/24 07:48:51;;;;;;;6.40;5.20;;;19.30;99.90;;;;;;468652;254;28859;-70
2021/07/24 07:50:53;;;;;;;6.33;4.67;;;19.30;99.90;;;;;;468729;254;29002;-70
2021/07/24 07:52:54;;;;;;;5.97;5.37;;;19.40;99.90;;;;;;468732;254;28866;-70
2021/07/24 07:54:55;;;;;;;6.10;4.57;;;19.40;99.90;;;;;;468718;254;28904;-70
2021/07/24 07:56:57;;;;;;;5.10;4.57;;;19.50;99.90;;;;;;468719;250;28877;-70
2021/07/24 07:58:58;;;;;;;5.80;4.63;;;19.60;99.90;;;;;;468732;254;28874;-69
2021/07/24 08:00:59;;;;;;;7.27;5.07;;;19.70;99.90;;;;;;468723;254;28934;-71
2021/07/24 08:03:00;;;;;;;5.63;4.93;;;19.70;99.90;;;;;;468697;254;28876;-69
2021/07/24 08:05:01;;;;;;;6.80;5.23;;;19.70;99.90;;;;;;468752;254;29297;-71
2021/07/24 08:07:03;;;;;;;5.80;5.17;;;19.70;99.90;;;;;;468731;254;29347;-69
2021/07/24 08:09:04;;;;;;;5.80;5.10;;;19.80;99.90;;;;;;468727;254;29413;-69
2021/07/24 08:11:06;;;;;;;5.70;4.87;;;19.80;99.90;;;;;;468728;254;29289;-71
2021/07/24 08:13:06;;;;;;;6.97;4.77;;;19.80;99.90;;;;;;468716;254;28951;-70
2021/07/24 08:15:08;;;;;;;6.10;5.50;;;19.90;99.90;;;;;;468745;254;28828;-70
2021/07/24 08:17:09;;;;;;;6.27;4.90;;;19.80;99.90;;;;;;468764;254;28838;-70
2021/07/24 08:19:10;;;;;;;5.67;4.70;;;19.80;99.90;;;;;;468718;254;28926;-70
2021/07/24 08:21:11;;;;;;;4.87;4.40;;;19.80;99.90;;;;;;468740;254;28823;-69
2021/07/24 08:23:15;;;;;;;5.80;5.03;;;20.00;99.90;;;;;;468728;254;28959;-69
2021/07/24 08:25:17;;;;;;;7.30;4.87;;;20.20;99.90;;;;;;468727;254;28880;-70
2021/07/24 08:27:18;;;;;;;7.87;5.03;;;20.50;99.90;;;;;;468763;254;28887;-70
2021/07/24 08:29:19;;;;;;;5.20;4.70;;;20.70;99.90;;;;;;468723;254;28936;-70
2021/07/24 08:31:20;;;;;;;8.93;5.10;;;20.80;99.90;;;;;;468697;254;28891;-70
2021/07/24 08:33:22;;;;;;;5.67;4.70;;;20.90;99.90;;;;;;468676;254;29410;-70
2021/07/24 08:35:23;;;;;;;5.73;5.13;;;21.00;99.90;;;;;;468743;254;29428;-70
2021/07/24 08:37:24;;;;;;;5.57;4.93;;;21.10;99.90;;;;;;468739;254;29330;-71
2021/07/24 08:39:25;;;;;;;5.70;5.20;;;21.20;99.90;;;;;;468736;254;28846;-69
2021/07/24 08:41:27;;;;;;;5.70;4.27;;;21.30;99.90;;;;;;468702;250;28861;-72
2021/07/24 08:43:28;;;;;;;6.63;4.80;;;21.30;99.90;;;;;;468706;254;28915;-70
2021/07/24 08:45:29;;;;;;;5.43;4.90;;;21.50;99.90;;;;;;468741;254;28872;-69
2021/07/24 08:47:30;;;;;;;5.40;4.73;;;21.40;99.90;;;;;;468744;254;28839;-71
2021/07/24 08:49:32;;;;;;;6.60;5.03;;;21.40;99.90;;;;;;468717;254;28842;-70
2021/07/24 08:51:33;;;;;;;5.47;4.67;;;21.30;99.90;;;;;;468744;254;28876;-69
2021/07/24 08:53:34;;;;;;;5.47;4.87;;;21.30;99.90;;;;;;468742;254;28941;-69
2021/07/24 08:55:37;;;;;;;5.30;4.33;;;21.30;99.90;;;;;;468717;254;28878;-69
2021/07/24 08:57:37;;;;;;;5.00;4.50;;;21.30;99.90;;;;;;468656;254;29285;-72
2021/07/24 08:59:38;;;;;;;4.40;4.00;;;21.30;99.90;;;;;;468713;254;29298;-71
2021/07/24 09:01:39;;;;;;;4.03;3.67;;;21.40;99.90;;;;;;468724;254;29428;-70
2021/07/24 09:03:40;;;;;;;4.73;4.33;;;21.50;99.90;;;;;;468741;254;28827;-71
2021/07/24 09:05:42;;;;;;;6.63;4.20;;;21.70;99.90;;;;;;468753;254;28886;-71
2021/07/24 09:07:43;;;;;;;5.27;4.40;;;21.80;99.90;;;;;;468750;254;28943;-71
2021/07/24 09:09:44;;;;;;;5.60;3.83;;;21.90;99.90;;;;;;468711;254;28938;-72
2021/07/24 09:11:45;;;;;;;6.70;4.67;;;22.00;99.90;;;;;;468750;254;28855;-71
2021/07/24 09:13:47;;;;;;;5.07;4.30;;;22.00;99.90;;;;;;468756;252;28844;-71
2021/07/24 09:15:48;;;;;;;4.83;4.33;;;21.90;99.90;;;;;;468749;254;28874;-71
2021/07/24 09:17:49;;;;;;;5.70;4.93;;;21.90;99.90;;;;;;468742;254;28842;-71
2021/07/24 09:19:51;;;;;;;6.73;3.97;;;21.90;99.90;;;;;;468740;254;28921;-69
2021/07/24 09:21:52;;;;;;;5.40;4.47;;;21.80;99.90;;;;;;468670;254;29428;-71
2021/07/24 09:23:53;;;;;;;5.50;4.07;;;21.90;99.90;;;;;;468748;254;29424;-71
2021/07/24 09:25:54;;;;;;;9.73;4.17;;;21.90;99.90;;;;;;468729;254;29416;-71
2021/07/24 09:27:55;;;;;;;4.73;4.17;;;21.90;99.90;;;;;;468753;254;28831;-71
2021/07/24 09:29:57;;;;;;;5.00;4.40;;;22.00;99.90;;;;;;468722;254;28998;-71
2021/07/24 09:31:58;;;;;;;5.60;4.23;;;22.00;99.90;;;;;;468736;254;28867;-72
2021/07/24 09:33:59;;;;;;;4.37;3.97;;;22.00;99.90;;;;;;468751;254;28899;-71
2021/07/24 09:36:00;;;;;;;4.17;3.77;;;22.10;99.90;;;;;;468745;254;28858;-71
2021/07/24 09:38:02;;;;;;;4.50;3.90;;;22.20;99.90;;;;;;468753;253;28819;-71
2021/07/24 09:40:03;;;;;;;4.23;3.83;;;22.30;99.90;;;;;;468738;253;28875;-71
2021/07/24 09:42:04;;;;;;;4.40;3.80;;;22.40;99.90;;;;;;468704;254;28866;-70
2021/07/24 09:44:05;;;;;;;4.63;4.23;;;22.40;99.90;;;;;;468746;254;28910;-71
2021/07/24 09:46:07;;;;;;;5.10;4.30;;;22.40;99.90;;;;;;468725;254;29409;-71
2021/07/24 09:48:09;;;;;;;6.07;4.40;;;22.40;99.90;;;;;;468733;254;30047;-71
2021/07/24 09:50:09;;;;;;;6.40;4.27;;;22.60;99.90;;;;;;468723;254;29385;-70
2021/07/24 09:52:11;;;;;;;4.67;3.87;;;23.00;99.90;;;;;;468740;254;28847;-71
2021/07/24 09:54:12;;;;;;;5.93;4.87;;;23.50;99.90;;;;;;468691;254;28823;-70
2021/07/24 09:56:17;;;;;;;5.57;4.87;;;23.50;99.90;;;;;;468674;254;28870;-71
2021/07/24 09:58:17;;;;;;;6.17;4.93;;;23.60;99.90;;;;;;468680;254;29424;-71
2021/07/24 10:00:18;;;;;;;8.60;5.50;;;23.50;99.90;;;;;;468748;254;29394;-70
2021/07/24 10:02:19;;;;;;;6.37;4.57;;;23.40;99.90;;;;;;468747;254;29367;-71
2021/07/24 10:04:21;;;;;;;6.73;4.33;;;23.40;99.90;;;;;;468681;254;28914;-71
2021/07/24 10:06:22;;;;;;;5.37;4.43;;;23.40;99.90;;;;;;468741;254;28824;-71
2021/07/24 10:08:23;;;;;;;6.50;4.70;;;23.30;99.90;;;;;;468722;254;28961;-71
2021/07/24 10:10:24;;;;;;;6.73;4.73;;;23.20;99.90;;;;;;468720;254;28859;-71
2021/07/24 10:12:26;;;;;;;5.50;4.80;;;23.10;99.90;;;;;;468734;254;28931;-71
2021/07/24 10:14:27;;;;;;;5.17;4.67;;;23.30;99.90;;;;;;468786;254;28929;-71
2021/07/24 10:16:28;;;;;;;9.00;5.17;;;23.30;99.90;;;;;;468746;254;28939;-70
2021/07/24 10:18:30;;;;;;;10.23;5.23;;;23.30;99.90;;;;;;468724;254;28864;-71
2021/07/24 10:20:31;;;;;;;5.90;4.83;;;23.30;99.90;;;;;;468733;254;29411;-71
2021/07/24 10:22:32;;;;;;;7.23;5.10;;;23.50;99.90;;;;;;468734;254;29366;-71
2021/07/24 10:24:33;;;;;;;5.67;5.17;;;23.40;99.90;;;;;;468739;254;29342;-70
2021/07/24 10:26:35;;;;;;;6.03;4.97;;;23.20;99.90;;;;;;468748;254;28823;-71
2021/07/24 10:28:36;;;;;;;6.33;4.50;;;23.10;99.90;;;;;;468734;254;28828;-71
2021/07/24 10:30:37;;;;;;;5.63;4.60;;;22.90;99.90;;;;;;468747;254;28946;-70
2021/07/24 10:32:38;;;;;;;6.23;4.47;;;22.70;99.90;;;;;;468744;254;28833;-71
2021/07/24 10:34:40;;;;;;;6.43;5.00;;;22.70;99.90;;;;;;468752;254;28847;-71
2021/07/24 10:36:41;;;;;;;4.83;4.43;;;22.80;99.90;;;;;;468743;254;28856;-71
2021/07/24 10:38:42;;;;;;;6.03;5.20;;;22.70;99.90;;;;;;468714;254;28862;-71
2021/07/24 10:40:43;;;;;;;6.63;5.20;;;22.80;99.90;;;;;;468754;254;28871;-70